createdAt,value
2023-04-22T00:00:15.872Z,14.13
2023-04-22T00:02:44.475Z,14.20
2023-04-22T00:05:15.633Z,15.40
2023-04-22T00:07:45.221Z,16.00
2023-04-22T00:10:14.817Z,15.50
2023-04-22T00:12:42.665Z,15.83
2023-04-22T00:15:11.606Z,15.20
2023-04-22T00:17:40.176Z,14.93
2023-04-22T00:20:10.825Z,14.20
2023-04-22T00:22:38.868Z,13.50
2023-04-22T00:25:07.694Z,13.90
2023-04-22T00:27:36.893Z,13.40
2023-04-22T00:30:05.456Z,13.30
2023-04-22T00:32:33.551Z,11.90
2023-04-22T00:35:01.497Z,12.53
2023-04-22T00:37:29.638Z,12.70
2023-04-22T00:39:58.014Z,13.50
2023-04-22T00:42:27.200Z,12.83
2023-04-22T00:44:56.648Z,12.70
2023-04-22T00:47:26.888Z,11.93
2023-04-22T00:49:55.591Z,12.97
2023-04-22T00:52:23.525Z,12.90
2023-04-22T00:54:52.655Z,12.60
2023-04-22T00:57:20.932Z,11.97
2023-04-22T00:59:49.114Z,12.77
2023-04-22T01:02:19.242Z,13.03
2023-04-22T01:04:47.981Z,11.60
2023-04-22T01:07:15.906Z,11.67
2023-04-22T01:09:44.372Z,12.90
2023-04-22T01:12:12.545Z,12.80
2023-04-22T01:14:41.439Z,12.40
2023-04-22T01:17:12.077Z,12.40
2023-04-22T01:19:42.621Z,11.43
2023-04-22T01:22:13.979Z,11.90
2023-04-22T01:24:43.363Z,11.57
2023-04-22T01:27:12.042Z,12.07
2023-04-22T01:29:40.196Z,12.20
2023-04-22T01:32:08.303Z,12.23
2023-04-22T01:34:36.224Z,11.70
2023-04-22T01:37:04.142Z,12.13
2023-04-22T01:39:32.268Z,10.93
2023-04-22T01:42:02.166Z,13.10
2023-04-22T01:44:30.234Z,12.07
2023-04-22T01:46:58.159Z,11.33
2023-04-22T01:49:26.036Z,11.23
2023-04-22T01:51:53.934Z,11.47
2023-04-22T01:54:21.998Z,11.77
2023-04-22T01:56:52.827Z,12.40
2023-04-22T01:59:22.535Z,11.33
2023-04-22T02:01:51.539Z,11.93
2023-04-22T02:04:20.086Z,11.83
2023-04-22T02:06:48.049Z,10.40
2023-04-22T02:09:15.972Z,11.57
2023-04-22T02:11:43.822Z,11.43
2023-04-22T02:14:11.783Z,11.10
2023-04-22T02:16:41.817Z,11.07
2023-04-22T02:19:10.076Z,10.90
2023-04-22T02:21:38.091Z,10.47
2023-04-22T02:24:06.694Z,11.13
2023-04-22T02:26:34.588Z,11.63
2023-04-22T02:29:02.700Z,11.60
2023-04-22T02:31:30.701Z,11.27
2023-04-22T02:34:00.379Z,10.03
2023-04-22T02:36:28.812Z,10.87
2023-04-22T02:38:56.965Z,10.93
2023-04-22T02:41:25.241Z,11.00
2023-04-22T02:43:53.421Z,11.43
2023-04-22T02:46:21.474Z,10.87
2023-04-22T02:48:49.759Z,10.70
2023-04-22T02:51:19.407Z,9.73
2023-04-22T02:53:47.410Z,10.53
2023-04-22T02:56:15.424Z,9.67
2023-04-22T02:58:43.368Z,9.43
2023-04-22T03:01:11.781Z,9.60
2023-04-22T03:03:40.175Z,9.93
2023-04-22T03:06:10.847Z,10.20
2023-04-22T03:08:40.103Z,10.13
2023-04-22T03:11:08.564Z,9.90
2023-04-22T03:13:36.479Z,9.70
2023-04-22T03:16:04.390Z,9.40
2023-04-22T03:18:33.314Z,10.43
2023-04-22T03:21:01.241Z,11.00
2023-04-22T03:23:29.249Z,10.20
2023-04-22T03:25:58.487Z,10.23
2023-04-22T03:28:26.451Z,9.63
2023-04-22T03:30:55.133Z,9.87
2023-04-22T03:33:23.534Z,9.43
2023-04-22T03:35:56.810Z,10.17
2023-04-22T03:38:25.768Z,10.10
2023-04-22T03:40:53.989Z,10.50
2023-04-22T03:43:33.527Z,10.00
2023-04-22T03:46:08.147Z,10.50
2023-04-22T03:48:39.308Z,9.80
2023-04-22T03:51:12.808Z,9.80
2023-04-22T03:53:42.153Z,10.07
2023-04-22T03:56:13.131Z,10.03
2023-04-22T03:58:47.058Z,13.00
2023-04-22T04:01:14.948Z,10.87
2023-04-22T04:03:46.383Z,10.47
2023-04-22T04:06:16.186Z,9.70
2023-04-22T04:08:44.066Z,10.30
2023-04-22T04:11:12.160Z,10.23
2023-04-22T04:13:40.146Z,9.40
2023-04-22T04:16:18.954Z,9.40
2023-04-22T04:18:52.260Z,9.17
2023-04-22T04:21:22.887Z,9.73
2023-04-22T04:23:53.563Z,9.60
2023-04-22T04:26:27.539Z,9.10
2023-04-22T04:29:02.115Z,10.03
2023-04-22T04:31:31.546Z,9.33
2023-04-22T04:34:01.056Z,9.80
2023-04-22T04:36:29.472Z,10.30
2023-04-22T04:39:05.620Z,9.33
2023-04-22T04:41:34.072Z,9.77
2023-04-22T04:44:03.251Z,9.87
2023-04-22T04:46:37.714Z,6.60
2023-04-22T04:49:06.002Z,9.57
2023-04-22T04:51:41.267Z,9.23
2023-04-22T04:54:09.440Z,9.10
2023-04-22T04:56:40.674Z,10.27
2023-04-22T04:59:10.541Z,9.30
2023-04-22T05:01:41.440Z,9.10
2023-04-22T05:04:13.022Z,9.17
2023-04-22T05:06:43.074Z,8.97
2023-04-22T05:09:11.178Z,9.13
2023-04-22T05:11:39.067Z,9.13
2023-04-22T05:14:13.736Z,8.93
2023-04-22T05:16:44.958Z,8.70
2023-04-22T05:19:12.947Z,8.97
2023-04-22T05:21:40.912Z,8.40
2023-04-22T05:24:09.004Z,8.63
2023-04-22T05:26:37.281Z,9.80
2023-04-22T05:29:11.161Z,8.70
2023-04-22T05:31:39.256Z,9.23
2023-04-22T05:34:09.649Z,9.10
2023-04-22T05:36:38.706Z,8.63
2023-04-22T05:39:07.022Z,7.93
2023-04-22T05:41:35.970Z,8.47
2023-04-22T05:44:08.122Z,9.97
2023-04-22T05:46:36.291Z,8.40
2023-04-22T05:49:04.421Z,8.90
2023-04-22T05:51:53.636Z,8.67
2023-04-22T05:54:25.150Z,9.57
2023-04-22T05:56:53.082Z,9.53
2023-04-22T05:59:21.832Z,8.97
2023-04-22T06:01:50.550Z,9.23
2023-04-22T06:04:21.439Z,10.43
2023-04-22T06:06:49.866Z,8.37
2023-04-22T06:09:19.164Z,10.07
2023-04-22T06:11:47.088Z,9.00
2023-04-22T06:14:15.926Z,9.70
2023-04-22T06:16:45.592Z,8.83
2023-04-22T06:19:13.736Z,9.50
2023-04-22T06:21:42.560Z,9.10
2023-04-22T06:24:11.011Z,8.77
2023-04-22T06:26:40.530Z,8.53
2023-04-22T06:29:08.889Z,8.60
2023-04-22T06:31:40.289Z,9.10
2023-04-22T06:34:08.177Z,9.27
2023-04-22T06:36:38.403Z,9.10
2023-04-22T06:39:07.649Z,9.43
2023-04-22T06:41:50.227Z,9.93
2023-04-22T06:44:47.663Z,10.20
2023-04-22T06:47:36.413Z,10.30
2023-04-22T06:50:11.188Z,9.73
2023-04-22T06:52:48.759Z,10.03
2023-04-22T06:55:16.660Z,9.63
2023-04-22T06:57:46.162Z,10.00
2023-04-22T07:00:15.183Z,9.63
2023-04-22T07:02:43.377Z,9.57
2023-04-22T07:05:11.396Z,9.03
2023-04-22T07:07:40.065Z,8.83
2023-04-22T07:10:10.711Z,9.30
2023-04-22T07:12:46.462Z,8.43
2023-04-22T07:15:14.473Z,8.70
2023-04-22T07:17:42.380Z,8.97
2023-04-22T07:20:11.538Z,8.90
2023-04-22T07:22:39.311Z,8.67
2023-04-22T07:25:08.264Z,9.10
2023-04-22T07:27:37.142Z,9.00
2023-04-22T07:30:08.415Z,8.47
2023-04-22T07:32:36.259Z,8.40
2023-04-22T07:35:04.190Z,8.70
2023-04-22T07:37:32.150Z,7.93
2023-04-22T07:40:00.045Z,8.03
2023-04-22T07:42:27.937Z,8.40
2023-04-22T07:44:55.743Z,8.50
2023-04-22T07:47:25.019Z,8.53
2023-04-22T07:49:52.944Z,8.50
2023-04-22T07:52:21.055Z,8.03
2023-04-22T07:54:48.916Z,9.17
2023-04-22T07:57:16.895Z,8.60
2023-04-22T07:59:44.827Z,6.77
2023-04-22T08:02:12.782Z,7.23
2023-04-22T08:04:42.154Z,7.30
2023-04-22T08:07:29.815Z,6.20
2023-04-22T08:09:58.610Z,8.23
2023-04-22T08:12:26.445Z,8.00
2023-04-22T08:14:54.364Z,9.50
2023-04-22T08:17:22.876Z,7.00
2023-04-22T08:19:52.187Z,6.90
2023-04-22T08:22:20.133Z,7.70
2023-04-22T08:24:48.013Z,7.90
2023-04-22T08:27:15.929Z,7.30
2023-04-22T08:29:44.046Z,7.37
2023-04-22T08:32:12.097Z,7.50
2023-04-22T08:34:40.359Z,8.43
2023-04-22T08:37:10.310Z,7.10
2023-04-22T08:39:38.653Z,7.17
2023-04-22T08:42:06.824Z,7.03
2023-04-22T08:44:36.349Z,6.70
2023-04-22T08:47:04.842Z,7.10
2023-04-22T08:49:33.048Z,6.90
2023-04-22T08:52:00.869Z,7.47
2023-04-22T08:54:30.112Z,7.20
2023-04-22T08:56:58.706Z,7.93
2023-04-22T08:59:26.965Z,8.10
2023-04-22T09:01:56.912Z,8.53
2023-04-22T09:04:25.722Z,11.73
2023-04-22T09:06:53.609Z,7.43
2023-04-22T09:09:22.076Z,6.80
2023-04-22T09:11:51.536Z,7.60
2023-04-22T09:14:20.376Z,7.70
2023-04-22T09:16:49.586Z,7.00
2023-04-22T09:19:17.624Z,7.27
2023-04-22T09:21:49.109Z,7.70
2023-04-22T09:24:17.938Z,16.70
2023-04-22T09:26:45.825Z,8.17
2023-04-22T09:29:16.916Z,6.83
2023-04-22T09:31:49.782Z,6.77
2023-04-22T09:34:17.844Z,7.23
2023-04-22T09:36:46.766Z,7.40
2023-04-22T09:39:14.918Z,7.20
2023-04-22T09:41:42.926Z,7.10
2023-04-22T09:44:12.748Z,6.60
2023-04-22T09:46:43.864Z,6.70
2023-04-22T09:49:12.287Z,7.00
2023-04-22T09:51:42.290Z,7.70
2023-04-22T09:54:12.223Z,5.03
2023-04-22T09:56:49.313Z,7.17
2023-04-22T09:59:22.661Z,7.07
2023-04-22T10:01:54.505Z,8.20
2023-04-22T10:04:23.571Z,6.80
2023-04-22T10:06:52.120Z,6.67
2023-04-22T10:09:21.979Z,6.67
2023-04-22T10:11:51.802Z,6.50
2023-04-22T10:14:19.768Z,18.00
2023-04-22T10:16:48.827Z,11.50
2023-04-22T10:19:21.885Z,6.43
2023-04-22T10:21:53.487Z,6.80
2023-04-22T10:24:21.774Z,7.27
2023-04-22T10:26:52.257Z,6.90
2023-04-22T10:29:22.685Z,7.07
2023-04-22T10:31:58.242Z,7.37
2023-04-22T10:34:27.662Z,7.43
2023-04-22T10:37:00.889Z,7.43
2023-04-22T10:39:30.142Z,7.57
2023-04-22T10:42:06.390Z,7.87
2023-04-22T10:44:48.624Z,7.40
2023-04-22T10:47:27.283Z,7.90
2023-04-22T10:52:52.173Z,6.83
2023-04-22T10:55:21.345Z,7.30
2023-04-22T10:57:51.009Z,7.27
2023-04-22T11:00:52.341Z,6.10
2023-04-22T11:03:27.171Z,7.00
2023-04-22T11:06:17.053Z,7.20
2023-04-22T11:08:47.687Z,6.53
2023-04-22T11:11:18.508Z,7.20
2023-04-22T11:13:50.484Z,6.57
2023-04-22T11:16:22.471Z,7.70
2023-04-22T11:18:50.907Z,7.50
2023-04-22T11:21:19.454Z,6.87
2023-04-22T11:23:53.213Z,7.13
2023-04-22T11:26:34.727Z,7.30
2023-04-22T11:29:02.786Z,6.70
2023-04-22T11:31:30.847Z,7.23
2023-04-22T11:34:00.174Z,6.73
2023-04-22T11:36:28.921Z,7.17
2023-04-22T11:38:58.388Z,7.30
2023-04-22T11:41:26.436Z,6.90
2023-04-22T11:43:55.536Z,6.47
2023-04-22T11:46:30.302Z,6.83
2023-04-22T11:49:12.867Z,6.50
2023-04-22T11:51:53.498Z,5.60
2023-04-22T11:54:32.501Z,6.77
2023-04-22T11:57:03.294Z,6.30
2023-04-22T11:59:31.287Z,7.00
2023-04-22T12:01:59.125Z,7.37
2023-04-22T12:04:27.062Z,6.97
2023-04-22T12:06:55.151Z,6.77
2023-04-22T12:09:25.734Z,6.77
2023-04-22T12:11:54.991Z,6.20
2023-04-22T12:14:22.983Z,6.40
2023-04-22T12:16:51.765Z,6.80
2023-04-22T12:19:26.805Z,6.47
2023-04-22T12:21:56.907Z,6.90
2023-04-22T12:24:29.114Z,5.80
2023-04-22T12:26:58.592Z,5.87
2023-04-22T12:29:32.817Z,6.20
2023-04-22T12:32:00.797Z,6.57
2023-04-22T12:34:28.604Z,6.07
2023-04-22T12:36:56.551Z,6.50
2023-04-22T12:39:24.446Z,6.27
2023-04-22T12:41:52.315Z,6.30
2023-04-22T12:44:23.171Z,5.63
2023-04-22T12:46:52.591Z,6.00
2023-04-22T12:49:20.509Z,6.23
2023-04-22T12:51:48.442Z,6.17
2023-04-22T12:54:16.470Z,5.63
2023-04-22T12:56:46.100Z,6.30
2023-04-22T12:59:14.293Z,6.40
2023-04-22T13:01:43.592Z,6.50
2023-04-22T13:04:11.647Z,6.70
2023-04-22T13:06:40.092Z,6.20
2023-04-22T13:09:08.996Z,6.53
2023-04-22T13:11:38.026Z,6.13
2023-04-22T13:14:05.921Z,5.80
2023-04-22T13:16:33.842Z,6.03
2023-04-22T13:19:03.293Z,5.83
2023-04-22T13:21:31.929Z,5.60
2023-04-22T13:24:00.034Z,6.40
2023-04-22T13:26:28.002Z,6.30
2023-04-22T13:28:55.974Z,6.20
2023-04-22T13:31:23.862Z,5.73
2023-04-22T13:33:51.776Z,6.70
2023-04-22T13:36:21.005Z,7.03
2023-04-22T13:38:48.908Z,7.57
2023-04-22T13:41:16.868Z,6.30
2023-04-22T13:43:44.781Z,6.40
2023-04-22T13:46:12.711Z,6.10
2023-04-22T13:48:40.795Z,6.60
2023-04-22T13:51:08.802Z,7.17
2023-04-22T13:53:38.156Z,7.23
2023-04-22T13:56:06.280Z,5.77
2023-04-22T13:58:34.552Z,6.90
2023-04-22T14:01:02.422Z,6.80
2023-04-22T14:03:31.287Z,6.20
2023-04-22T14:06:00.948Z,6.07
2023-04-22T14:08:28.878Z,6.20
2023-04-22T14:10:59.308Z,6.03
2023-04-22T14:13:27.750Z,6.80
2023-04-22T14:15:56.047Z,5.50
2023-04-22T14:18:24.248Z,5.57
2023-04-22T14:20:53.031Z,5.83
2023-04-22T14:23:20.993Z,5.87
2023-04-22T14:25:49.895Z,6.13
2023-04-22T14:28:19.199Z,5.73
2023-04-22T14:30:47.212Z,7.87
2023-04-22T14:33:15.204Z,6.10
2023-04-22T14:35:43.409Z,6.77
2023-04-22T14:38:12.410Z,5.33
2023-04-22T14:40:40.421Z,5.90
2023-04-22T14:43:08.601Z,5.30
2023-04-22T14:45:37.892Z,5.13
2023-04-22T14:48:05.926Z,5.40
2023-04-22T14:50:34.128Z,4.87
2023-04-22T14:53:04.421Z,6.13
2023-04-22T14:55:32.445Z,6.67
2023-04-22T14:58:00.678Z,5.47
2023-04-22T15:00:29.571Z,6.10
2023-04-22T15:02:59.017Z,5.30
2023-04-22T15:05:26.933Z,5.80
2023-04-22T15:07:54.794Z,5.90
2023-04-22T15:10:22.798Z,5.40
2023-04-22T15:12:50.784Z,5.37
2023-04-22T15:15:18.778Z,5.40
2023-04-22T15:17:46.979Z,5.23
2023-04-22T15:20:16.299Z,5.80
2023-04-22T15:22:44.988Z,5.70
2023-04-22T15:25:12.932Z,5.90
2023-04-22T15:27:41.121Z,5.70
2023-04-22T15:30:10.907Z,5.50
2023-04-22T15:32:39.972Z,5.10
2023-04-22T15:35:08.989Z,5.80
2023-04-22T15:37:38.278Z,6.17
2023-04-22T15:40:07.873Z,6.17
2023-04-22T15:42:36.013Z,5.50
2023-04-22T15:45:04.372Z,7.30
2023-04-22T15:47:32.590Z,6.23
2023-04-22T15:50:06.218Z,6.30
2023-04-22T15:52:34.452Z,5.93
2023-04-22T15:55:03.728Z,5.47
2023-04-22T15:57:35.222Z,5.57
2023-04-22T16:00:10.885Z,5.80
2023-04-22T16:02:44.280Z,5.30
2023-04-22T16:05:13.937Z,7.23
2023-04-22T16:07:41.855Z,5.93
2023-04-22T16:10:12.125Z,5.37
2023-04-22T16:12:40.123Z,6.77
2023-04-22T16:15:09.506Z,5.53
2023-04-22T16:17:37.961Z,5.20
2023-04-22T16:20:07.323Z,6.20
2023-04-22T16:22:35.262Z,5.00
2023-04-22T16:25:03.266Z,5.30
2023-04-22T16:27:32.646Z,4.73
2023-04-22T16:30:01.030Z,5.03
2023-04-22T16:32:28.968Z,5.40
2023-04-22T16:34:56.976Z,5.23
2023-04-22T16:37:27.346Z,5.80
2023-04-22T16:39:55.385Z,4.93
2023-04-22T16:42:23.380Z,4.90
2023-04-22T16:44:52.672Z,5.23
2023-04-22T16:47:20.786Z,5.07
2023-04-22T16:49:48.746Z,6.60
2023-04-22T16:52:16.853Z,5.03
2023-04-22T16:54:44.835Z,5.60
2023-04-22T16:57:12.921Z,5.60
2023-04-22T16:59:41.041Z,5.57
2023-04-22T17:02:10.668Z,5.93
2023-04-22T17:04:38.620Z,5.53
2023-04-22T17:07:06.512Z,5.50
2023-04-22T17:09:34.396Z,5.57
2023-04-22T17:12:02.327Z,5.13
2023-04-22T17:14:31.001Z,6.03
2023-04-22T17:16:58.971Z,6.20
2023-04-22T17:19:28.359Z,5.83
2023-04-22T17:21:56.586Z,6.30
2023-04-22T17:24:24.856Z,5.60
2023-04-22T17:26:52.792Z,5.80
2023-04-22T17:29:21.673Z,6.23
2023-04-22T17:31:49.728Z,7.00
2023-04-22T17:34:17.675Z,7.33
2023-04-22T17:36:46.920Z,6.60
2023-04-22T17:39:14.954Z,14.00
2023-04-22T17:41:42.901Z,22.20
2023-04-22T17:44:11.276Z,25.93
2023-04-22T17:46:39.159Z,29.50
2023-04-22T17:49:06.973Z,14.07
2023-04-22T17:51:34.942Z,8.40
2023-04-22T17:54:05.236Z,8.60
2023-04-22T17:56:33.249Z,8.00
2023-04-22T17:59:01.199Z,7.00
2023-04-22T18:01:30.012Z,7.10
2023-04-22T18:03:57.967Z,6.33
2023-04-22T18:06:25.953Z,7.33
2023-04-22T18:08:53.962Z,8.20
2023-04-22T18:11:23.900Z,11.23
2023-04-22T18:13:51.884Z,9.10
2023-04-22T18:16:19.755Z,8.60
2023-04-22T18:18:47.610Z,7.63
2023-04-22T18:21:15.564Z,8.50
2023-04-22T18:23:43.484Z,7.67
2023-04-22T18:26:11.541Z,8.37
2023-04-22T18:28:41.199Z,8.77
2023-04-22T18:31:09.271Z,8.33
2023-04-22T18:33:37.475Z,8.10
2023-04-22T18:36:06.218Z,7.70
2023-04-22T18:38:34.204Z,11.63
2023-04-22T18:41:02.273Z,49.30
2023-04-22T18:43:30.568Z,70.47
2023-04-22T18:46:00.050Z,26.83
2023-04-22T18:48:28.030Z,19.70
2023-04-22T18:50:56.051Z,13.87
2023-04-22T18:53:23.939Z,11.03
2023-04-22T18:55:51.790Z,11.33
2023-04-22T18:58:21.410Z,11.90
2023-04-22T19:00:49.321Z,10.57
2023-04-22T19:03:19.444Z,10.67
2023-04-22T19:05:47.504Z,9.90
2023-04-22T19:08:15.305Z,10.73
2023-04-22T19:10:43.418Z,12.63
2023-04-22T19:13:22.368Z,14.23
2023-04-22T19:15:56.480Z,15.10
2023-04-22T19:18:25.968Z,13.43
2023-04-22T19:20:53.982Z,13.20
2023-04-22T19:23:21.864Z,12.33
2023-04-22T19:25:51.519Z,12.60
2023-04-22T19:28:19.394Z,11.27
2023-04-22T19:30:47.276Z,10.77
2023-04-22T19:33:15.656Z,11.70
2023-04-22T19:35:45.050Z,13.43
2023-04-22T19:38:16.304Z,11.53
2023-04-22T19:40:44.342Z,12.83
2023-04-22T19:43:12.328Z,13.97
2023-04-22T19:45:40.723Z,15.30
2023-04-22T19:48:09.637Z,14.60
2023-04-22T19:50:37.851Z,14.20
2023-04-22T19:53:07.938Z,27.30
2023-04-22T19:55:37.404Z,23.00
2023-04-22T19:58:06.802Z,18.30
2023-04-22T20:00:35.294Z,16.10
2023-04-22T20:03:04.313Z,17.13
2023-04-22T20:05:32.902Z,16.73
2023-04-22T20:08:01.874Z,17.80
2023-04-22T20:10:31.728Z,17.73
2023-04-22T20:12:59.870Z,18.10
2023-04-22T20:15:28.163Z,17.10
2023-04-22T20:17:56.362Z,17.30
2023-04-22T20:20:24.640Z,16.90
2023-04-22T20:22:54.744Z,16.80
2023-04-22T20:25:23.505Z,12.67
2023-04-22T20:27:54.170Z,11.90
2023-04-22T20:30:22.413Z,11.13
2023-04-22T20:32:50.563Z,11.50
2023-04-22T20:35:19.246Z,12.33
2023-04-22T20:37:48.569Z,13.30
2023-04-22T20:40:18.897Z,11.20
2023-04-22T20:42:46.980Z,11.83
2023-04-22T20:45:17.766Z,12.47
2023-04-22T20:47:46.142Z,12.10
2023-04-22T20:50:14.740Z,12.30
2023-04-22T20:52:43.327Z,13.37
2023-04-22T20:55:11.343Z,13.33
2023-04-22T20:57:39.234Z,14.03
2023-04-22T21:00:10.208Z,14.30
2023-04-22T21:02:40.969Z,15.50
2023-04-22T21:05:11.124Z,15.00
2023-04-22T21:07:40.574Z,15.30
2023-04-22T21:10:10.011Z,16.60
2023-04-22T21:12:39.129Z,16.37
2023-04-22T21:15:08.737Z,18.77
2023-04-22T21:17:39.835Z,16.50
2023-04-22T21:20:10.921Z,16.97
2023-04-22T21:22:41.851Z,17.17
2023-04-22T21:25:11.704Z,18.40
2023-04-22T21:27:40.785Z,16.90
2023-04-22T21:30:10.315Z,18.80
2023-04-22T21:32:40.590Z,16.87
2023-04-22T21:35:10.411Z,16.47
2023-04-22T21:37:38.280Z,17.10
2023-04-22T21:40:11.214Z,17.03
2023-04-22T21:42:39.113Z,17.60
2023-04-22T21:45:08.177Z,17.50
2023-04-22T21:47:36.060Z,16.20
2023-04-22T21:50:03.955Z,18.13
2023-04-22T21:52:33.392Z,17.00
2023-04-22T21:55:01.591Z,16.27
2023-04-22T21:57:30.193Z,16.93
2023-04-22T21:59:58.060Z,16.87
2023-04-22T22:02:26.937Z,15.63
2023-04-22T22:04:54.916Z,15.80
2023-04-22T22:07:22.876Z,16.93
2023-04-22T22:09:52.851Z,16.37
2023-04-22T22:12:20.778Z,16.40
2023-04-22T22:14:48.636Z,16.70
2023-04-22T22:17:17.449Z,17.67
2023-04-22T22:19:45.507Z,16.37
2023-04-22T22:22:13.395Z,15.37
2023-04-22T22:24:41.670Z,15.53
2023-04-22T22:27:11.041Z,15.80
2023-04-22T22:29:40.755Z,15.60
2023-04-22T22:32:08.996Z,15.60
2023-04-22T22:34:36.986Z,17.50
2023-04-22T22:37:05.281Z,15.70
2023-04-22T22:39:33.249Z,16.23
2023-04-22T22:42:01.830Z,15.90
2023-04-22T22:44:31.475Z,16.13
2023-04-22T22:46:59.493Z,15.90
2023-04-22T22:49:27.419Z,14.50
2023-04-22T22:51:55.531Z,16.57
2023-04-22T22:54:23.414Z,17.27
2023-04-22T22:56:51.358Z,17.20
2023-04-22T22:59:19.240Z,17.57
2023-04-22T23:01:48.713Z,17.47
2023-04-22T23:04:16.943Z,16.60
2023-04-22T23:06:45.104Z,17.50
2023-04-22T23:09:15.088Z,16.17
2023-04-22T23:11:43.090Z,17.47
2023-04-22T23:14:11.628Z,16.57
2023-04-22T23:16:39.530Z,17.27
2023-04-22T23:19:08.887Z,17.40
2023-04-22T23:21:37.587Z,15.47
2023-04-22T23:24:06.473Z,17.83
2023-04-22T23:26:36.120Z,16.20
2023-04-22T23:29:04.526Z,15.97
2023-04-22T23:31:33.995Z,16.50
2023-04-22T23:34:03.753Z,14.40
2023-04-22T23:36:36.374Z,14.10
2023-04-22T23:39:06.648Z,14.47
2023-04-22T23:41:34.905Z,16.17
2023-04-22T23:44:02.988Z,16.10
2023-04-22T23:46:31.011Z,14.93
2023-04-22T23:48:59.504Z,15.23
2023-04-22T23:51:28.310Z,15.97
2023-04-22T23:53:57.611Z,15.07
2023-04-22T23:56:26.496Z,14.13
2023-04-22T23:58:54.897Z,13.77
